Terminal Aerodrome Forecast
Issued by NWS

Home | Current Version | Previous Version | Text Only | Print | Product List | Glossary Off
Versions: 1 2 3 4 5 6 7 8 9 10 11 12 13 14 15 16 17 18 19 20 21 22 23 24 25

000
FTUS43 KUNR 161700
TAFGCC
TAF
KGCC 161720Z 1618/1718 16009KT P6SM SCT150
      TEMPO 1618/1621 5SM BR FEW005
     FM162100 16010KT P6SM BKN120
     FM170300 18007KT P6SM OVC007=

USA.gov is the U.S. government's official web portal to all federal, state and local government web resources and services.